createdAt,value
2019-02-22T00:02:27.251Z,4.23
2019-02-22T00:04:57.694Z,4.27
2019-02-22T00:07:28.134Z,3.43
2019-02-22T00:09:58.544Z,3.67
2019-02-22T00:12:29.265Z,3.80
2019-02-22T00:15:00.972Z,3.30
2019-02-22T00:17:31.380Z,3.60
2019-02-22T00:20:01.782Z,3.87
2019-02-22T00:22:32.184Z,4.33
2019-02-22T00:25:02.598Z,3.30
2019-02-22T00:27:33.046Z,3.33
2019-02-22T00:30:03.452Z,3.87
2019-02-22T00:32:33.832Z,3.23
2019-02-22T00:35:05.475Z,3.23
2019-02-22T00:37:36.001Z,3.20
2019-02-22T00:40:06.387Z,2.77
2019-02-22T00:42:36.773Z,2.70
2019-02-22T00:45:07.132Z,2.90
2019-02-22T00:47:37.504Z,2.60
2019-02-22T00:50:09.011Z,3.00
2019-02-22T00:52:39.497Z,2.53
2019-02-22T00:55:09.875Z,3.00
2019-02-22T00:57:41.867Z,2.70
2019-02-22T01:00:12.258Z,2.40
2019-02-22T01:02:42.683Z,2.60
2019-02-22T01:05:13.061Z,3.03
2019-02-22T01:07:43.482Z,2.60
2019-02-22T01:10:13.864Z,2.43
2019-02-22T01:12:44.293Z,2.87
2019-02-22T01:15:14.689Z,2.63
2019-02-22T01:17:45.131Z,2.57
2019-02-22T01:20:15.544Z,2.40
2019-02-22T01:22:45.936Z,2.93
2019-02-22T01:25:16.359Z,2.33
2019-02-22T01:27:46.754Z,3.10
2019-02-22T01:30:17.108Z,2.93
2019-02-22T01:32:47.531Z,2.93
2019-02-22T01:35:17.949Z,2.73
2019-02-22T01:37:48.387Z,2.10
2019-02-22T01:40:18.807Z,2.37
2019-02-22T01:42:49.083Z,2.63
2019-02-22T01:45:19.477Z,2.30
2019-02-22T01:47:49.927Z,2.37
2019-02-22T01:50:22.349Z,2.20
2019-02-22T01:52:52.718Z,2.20
2019-02-22T01:55:23.093Z,2.80
2019-02-22T01:57:53.505Z,2.10
2019-02-22T02:00:23.911Z,2.07
2019-02-22T02:02:54.311Z,1.93
2019-02-22T02:05:24.744Z,2.60
2019-02-22T02:07:55.150Z,1.90
2019-02-22T02:10:25.575Z,2.00
2019-02-22T02:12:55.946Z,2.00
2019-02-22T02:15:26.322Z,2.40
2019-02-22T02:17:56.752Z,1.83
2019-02-22T02:20:27.201Z,2.47
2019-02-22T02:22:57.620Z,1.97
2019-02-22T02:25:28.069Z,1.97
2019-02-22T02:27:58.458Z,1.80
2019-02-22T02:30:28.835Z,1.87
2019-02-22T02:32:59.199Z,1.67
2019-02-22T02:35:29.538Z,1.87
2019-02-22T02:37:59.930Z,2.00
2019-02-22T02:40:30.315Z,1.60
2019-02-22T02:43:00.710Z,1.30
2019-02-22T02:45:31.094Z,1.60
2019-02-22T02:48:01.508Z,1.73
2019-02-22T02:50:31.890Z,1.83
2019-02-22T02:53:02.297Z,1.50
2019-02-22T02:55:34.173Z,1.80
2019-02-22T02:58:04.582Z,1.77
2019-02-22T03:00:35.017Z,1.83
2019-02-22T03:03:05.393Z,1.60
2019-02-22T03:05:40.310Z,1.70
2019-02-22T03:08:10.674Z,1.57
2019-02-22T03:10:41.103Z,1.33
2019-02-22T03:13:11.524Z,1.60
2019-02-22T03:15:41.910Z,1.67
2019-02-22T03:18:12.351Z,1.87
2019-02-22T03:20:42.749Z,1.50
2019-02-22T03:23:13.244Z,1.90
2019-02-22T03:25:46.095Z,1.83
2019-02-22T03:28:16.509Z,1.43
2019-02-22T03:30:46.913Z,1.67
2019-02-22T03:33:17.561Z,1.70
2019-02-22T03:35:47.970Z,1.50
2019-02-22T03:38:18.400Z,1.70
2019-02-22T03:40:48.749Z,1.57
2019-02-22T03:43:19.181Z,1.30
2019-02-22T03:45:49.579Z,1.77
2019-02-22T03:48:20.826Z,1.40
2019-02-22T03:50:51.213Z,1.83
2019-02-22T03:53:23.176Z,1.80
2019-02-22T03:55:53.627Z,1.90
2019-02-22T03:58:23.995Z,1.80
2019-02-22T04:00:54.409Z,1.80
2019-02-22T04:03:24.857Z,1.83
2019-02-22T04:05:55.260Z,2.00
2019-02-22T04:08:25.645Z,1.80
2019-02-22T04:10:56.035Z,2.23
2019-02-22T04:13:26.450Z,1.90
2019-02-22T04:15:56.885Z,2.10
2019-02-22T04:18:27.299Z,2.03
2019-02-22T04:20:57.781Z,2.30
2019-02-22T04:23:28.232Z,1.70
2019-02-22T04:25:58.600Z,2.33
2019-02-22T04:28:29.023Z,2.40
2019-02-22T04:31:01.042Z,3.67
2019-02-22T04:33:31.447Z,2.97
2019-02-22T04:36:01.863Z,2.40
2019-02-22T04:38:32.319Z,3.27
2019-02-22T04:41:02.719Z,3.53
2019-02-22T04:43:33.154Z,4.10
2019-02-22T04:46:03.566Z,4.13
2019-02-22T04:48:33.974Z,4.40
2019-02-22T04:51:04.415Z,5.17
2019-02-22T04:53:34.852Z,5.27
2019-02-22T04:56:05.298Z,5.93
2019-02-22T04:58:38.979Z,4.63
2019-02-22T05:01:09.381Z,4.43
2019-02-22T05:03:42.752Z,4.83
2019-02-22T05:06:15.992Z,4.43
2019-02-22T05:08:47.716Z,4.73
2019-02-22T05:11:19.715Z,5.80
2019-02-22T05:13:50.137Z,6.63
2019-02-22T05:16:22.188Z,6.37
2019-02-22T05:18:52.572Z,6.07
2019-02-22T05:21:23.029Z,6.93
2019-02-22T05:23:55.100Z,5.80
2019-02-22T05:26:29.282Z,5.90
2019-02-22T05:28:59.661Z,5.93
2019-02-22T05:31:31.207Z,6.33
2019-02-22T05:34:01.785Z,6.10
2019-02-22T05:36:32.223Z,5.17
2019-02-22T05:39:05.129Z,6.27
2019-02-22T05:41:39.491Z,5.43
2019-02-22T05:44:12.933Z,3.73
2019-02-22T05:46:44.796Z,3.53
2019-02-22T05:49:16.855Z,3.80
2019-02-22T05:51:49.570Z,3.83
2019-02-22T05:54:29.613Z,4.07
2019-02-22T05:57:01.927Z,4.00
2019-02-22T05:59:32.494Z,5.27
2019-02-22T06:02:02.895Z,7.13
2019-02-22T06:04:35.656Z,6.33
2019-02-22T06:07:08.758Z,6.60
2019-02-22T06:09:41.505Z,5.67
2019-02-22T06:12:14.232Z,6.07
2019-02-22T06:14:44.718Z,3.83
2019-02-22T06:17:16.283Z,3.43
2019-02-22T06:19:49.723Z,4.07
2019-02-22T06:22:28.995Z,5.47
2019-02-22T06:24:58.746Z,5.20
2019-02-22T06:27:33.742Z,5.20
2019-02-22T06:30:07.971Z,5.80
2019-02-22T06:32:42.440Z,5.47
2019-02-22T06:35:14.089Z,4.57
2019-02-22T06:37:44.491Z,4.60
2019-02-22T06:40:14.884Z,3.00
2019-02-22T06:42:46.267Z,5.10
2019-02-22T06:45:18.352Z,8.37
2019-02-22T06:47:54.696Z,5.20
2019-02-22T06:50:33.660Z,3.83
2019-02-22T06:53:00.051Z,3.00
2019-02-22T06:55:30.469Z,2.60
2019-02-22T06:58:02.491Z,2.77
2019-02-22T07:00:32.958Z,2.80
2019-02-22T07:03:05.632Z,3.10
2019-02-22T07:05:36.038Z,3.20
2019-02-22T07:08:09.665Z,2.90
2019-02-22T07:11:00.012Z,3.60
2019-02-22T07:13:33.298Z,3.37
2019-02-22T07:16:05.100Z,2.40
2019-02-22T07:18:35.599Z,3.77
2019-02-22T07:21:07.579Z,3.17
2019-02-22T07:23:38.101Z,2.93
2019-02-22T07:26:13.828Z,3.30
2019-02-22T07:28:44.282Z,3.13
2019-02-22T07:31:17.088Z,3.07
2019-02-22T10:18:58.296Z,2.90
2019-02-22T10:21:28.883Z,2.43
2019-02-22T10:23:59.365Z,2.87
2019-02-22T10:26:29.944Z,2.90
2019-02-22T10:29:00.694Z,2.87
2019-02-22T10:31:31.308Z,3.77
2019-02-22T10:34:01.807Z,3.23
2019-02-22T10:36:44.744Z,5.43
2019-02-22T10:39:11.262Z,4.77
2019-02-22T10:44:38.476Z,3.57
2019-02-22T10:47:09.112Z,3.00
2019-02-22T10:49:39.705Z,2.73
2019-02-22T10:52:10.214Z,2.47
2019-02-22T10:54:40.831Z,2.40
2019-02-22T10:57:11.351Z,2.67
2019-02-22T10:59:41.794Z,2.47
2019-02-22T11:02:12.277Z,2.70
2019-02-22T11:07:49.952Z,2.47
2019-02-22T11:10:20.423Z,2.77
2019-02-22T11:15:49.115Z,2.43
2019-02-22T11:18:20.598Z,2.97
2019-02-22T11:20:52.708Z,2.53
2019-02-22T11:23:23.461Z,3.17
2019-02-22T11:26:21.805Z,3.00
2019-02-22T11:28:55.129Z,3.13
2019-02-22T11:31:44.382Z,2.83
2019-02-22T11:34:14.843Z,3.00
2019-02-22T11:36:45.310Z,2.87
2019-02-22T11:39:18.445Z,2.43
2019-02-22T11:44:41.686Z,2.90
2019-02-22T11:47:12.233Z,3.40
2019-02-22T11:49:42.770Z,2.33
2019-02-22T11:55:06.758Z,3.90
2019-02-22T11:57:39.036Z,2.50
2019-02-22T12:00:20.285Z,2.60
2019-02-22T12:02:52.517Z,2.50
2019-02-22T12:05:24.198Z,2.60
2019-02-22T12:07:57.520Z,2.47
2019-02-22T12:10:33.878Z,2.80
2019-02-22T12:13:04.420Z,2.50
2019-02-22T12:15:34.812Z,2.40
2019-02-22T12:18:05.234Z,2.93
2019-02-22T12:20:43.898Z,3.10
2019-02-22T12:23:14.483Z,5.67
2019-02-22T12:25:45.027Z,3.40
2019-02-22T12:28:17.258Z,5.83
2019-02-22T12:30:47.737Z,3.63
2019-02-22T12:33:18.814Z,4.57
2019-02-22T12:35:49.226Z,4.53
2019-02-22T12:38:19.663Z,3.10
2019-02-22T12:40:50.226Z,2.97
2019-02-22T12:43:20.653Z,3.30
2019-02-22T12:45:51.314Z,3.50
2019-02-22T12:48:21.831Z,3.20
2019-02-22T12:50:52.250Z,2.97
2019-02-22T12:53:22.722Z,2.57
2019-02-22T12:55:53.247Z,3.23
2019-02-22T12:58:25.742Z,3.53
2019-02-22T13:00:56.164Z,3.43
2019-02-22T13:03:29.599Z,3.13
2019-02-22T13:06:00.403Z,3.10
2019-02-22T13:11:20.456Z,3.57
2019-02-22T13:13:50.872Z,3.47
2019-02-22T13:16:21.258Z,4.00
2019-02-22T13:18:54.592Z,3.10
2019-02-22T13:21:28.367Z,3.27
2019-02-22T13:24:00.455Z,2.97
2019-02-22T13:26:33.403Z,3.50
2019-02-22T13:29:13.019Z,3.30
2019-02-22T13:31:43.542Z,4.50
2019-02-22T13:34:14.078Z,3.87
2019-02-22T13:36:44.508Z,3.43
2019-02-22T13:39:15.135Z,3.90
2019-02-22T13:41:46.276Z,3.90
2019-02-22T13:47:06.287Z,4.47
2019-02-22T13:49:38.153Z,3.63
2019-02-22T13:52:14.673Z,3.83
2019-02-22T13:54:48.413Z,2.97
2019-02-22T13:57:20.165Z,3.27
2019-02-22T13:59:52.053Z,3.47
2019-02-22T14:02:22.998Z,4.50
2019-02-22T14:07:54.597Z,5.60
2019-02-22T14:13:16.618Z,4.77
2019-02-22T14:15:47.039Z,5.60
2019-02-22T14:18:17.460Z,4.80
2019-02-22T14:20:49.118Z,5.67
2019-02-22T14:23:21.115Z,4.57
2019-02-22T14:25:51.520Z,5.80
2019-02-22T14:28:24.431Z,5.40
2019-02-22T14:30:55.010Z,5.73
2019-02-22T14:33:25.437Z,6.10
2019-02-22T14:35:55.961Z,5.07
2019-02-22T14:38:26.527Z,4.70
2019-02-22T14:40:59.707Z,4.80
2019-02-22T14:43:31.591Z,4.60
2019-02-22T14:46:02.092Z,4.43
2019-02-22T14:48:33.955Z,4.63
2019-02-22T14:51:04.401Z,3.70
2019-02-22T14:53:34.880Z,3.50
2019-02-22T14:56:05.346Z,3.33
2019-02-22T14:58:35.905Z,3.77
2019-02-22T15:01:06.366Z,3.60
2019-02-22T15:03:36.842Z,3.37
2019-02-22T15:06:07.272Z,3.33
2019-02-22T15:08:37.717Z,3.30
2019-02-22T15:11:08.170Z,3.60
2019-02-22T15:13:38.607Z,3.63
2019-02-22T15:16:13.755Z,2.90
2019-02-22T15:18:44.146Z,2.83
2019-02-22T15:21:14.626Z,3.30
2019-02-22T15:23:53.185Z,2.90
2019-02-22T15:26:23.911Z,2.53
2019-02-22T15:28:54.333Z,2.87
2019-02-22T15:31:33.425Z,2.90
2019-02-22T15:33:57.413Z,2.67
2019-02-22T15:36:27.963Z,2.70
2019-02-22T15:38:58.370Z,3.40
2019-02-22T15:41:28.840Z,3.07
2019-02-22T15:43:59.396Z,2.50
2019-02-22T15:46:29.936Z,1.50
2019-02-22T15:49:00.499Z,3.10
2019-02-22T15:51:30.940Z,2.57
2019-02-22T15:54:01.375Z,2.73
2019-02-22T15:56:31.809Z,2.80
2019-02-22T15:59:02.267Z,2.20
2019-02-22T16:01:34.349Z,3.00
2019-02-22T16:04:11.712Z,3.33
2019-02-22T16:06:42.252Z,2.90
2019-02-22T16:09:15.688Z,2.27
2019-02-22T16:11:46.339Z,2.37
2019-02-22T16:14:18.498Z,3.00
2019-02-22T16:16:52.135Z,2.97
2019-02-22T16:19:26.133Z,3.93
2019-02-22T16:22:00.966Z,3.77
2019-02-22T16:24:33.330Z,4.20
2019-02-22T16:27:05.364Z,3.63
2019-02-22T16:29:36.354Z,3.77
2019-02-22T16:32:07.111Z,3.87
2019-02-22T16:34:43.575Z,3.37
2019-02-22T16:37:11.304Z,2.70
2019-02-22T16:39:41.743Z,3.40
2019-02-22T16:42:16.476Z,6.13
2019-02-22T16:44:47.119Z,3.27
2019-02-22T16:47:17.764Z,3.40
2019-02-22T16:49:48.431Z,2.97
2019-02-22T16:52:18.877Z,2.70
2019-02-22T16:54:49.540Z,2.83
2019-02-22T16:57:25.628Z,3.00
2019-02-22T16:59:56.228Z,2.40
2019-02-22T17:02:31.193Z,2.33
2019-02-22T17:05:02.763Z,2.13
2019-02-22T17:07:34.282Z,2.27
2019-02-22T17:10:08.878Z,2.80
2019-02-22T17:12:40.939Z,3.00
2019-02-22T17:15:12.649Z,2.67
2019-02-22T17:17:43.110Z,2.10
2019-02-22T17:20:14.957Z,2.40
2019-02-22T17:22:46.369Z,1.10
2019-02-22T17:25:20.621Z,3.33
2019-02-22T17:27:51.001Z,2.63
2019-02-22T17:30:22.633Z,2.03
2019-02-22T17:32:53.039Z,1.90
2019-02-22T17:35:24.437Z,2.60
2019-02-22T17:37:56.582Z,2.27
2019-02-22T17:40:30.187Z,1.47
2019-02-22T17:43:03.573Z,2.07
2019-02-22T17:45:35.615Z,2.03
2019-02-22T17:48:06.233Z,1.97
2019-02-22T17:50:36.720Z,1.90
2019-02-22T17:53:07.133Z,1.77
2019-02-22T17:55:38.787Z,1.93
2019-02-22T18:01:11.694Z,3.20
2019-02-22T18:03:42.275Z,2.17
2019-02-22T18:06:12.956Z,2.40
2019-02-22T18:08:44.702Z,2.10
2019-02-22T18:11:17.498Z,3.57
2019-02-22T18:13:49.553Z,2.27
2019-02-22T18:16:33.904Z,1.67
2019-02-22T18:19:04.782Z,2.80
2019-02-22T18:21:46.605Z,1.47
2019-02-22T18:24:21.948Z,2.20
2019-02-22T18:27:10.283Z,2.30
2019-02-22T18:29:45.812Z,2.43
2019-02-22T18:32:16.398Z,2.33
2019-02-22T18:34:47.351Z,2.10
2019-02-22T18:37:19.003Z,2.30
2019-02-22T18:39:49.895Z,2.90
2019-02-22T18:42:22.581Z,2.13
2019-02-22T18:44:56.621Z,2.50
2019-02-22T18:47:41.635Z,2.20
2019-02-22T18:50:40.570Z,2.30
2019-02-22T18:53:34.062Z,2.70
2019-02-22T18:56:07.248Z,2.10
2019-02-22T19:01:27.935Z,2.60
2019-02-22T19:04:00.153Z,2.23
2019-02-22T19:06:34.414Z,2.73
2019-02-22T19:09:32.796Z,3.10
2019-02-22T19:11:47.416Z,3.13
2019-02-22T19:14:17.960Z,1.57
2019-02-22T19:16:48.609Z,1.67
2019-02-22T19:19:19.638Z,1.67
2019-02-22T19:21:50.509Z,1.63
2019-02-22T19:24:23.542Z,1.50
2019-02-22T19:26:55.418Z,1.47
2019-02-22T19:29:25.910Z,1.70
2019-02-22T19:31:58.047Z,1.83
2019-02-22T19:34:28.605Z,1.43
2019-02-22T19:37:00.953Z,2.10
2019-02-22T19:39:37.974Z,1.90
2019-02-22T19:42:09.959Z,1.53
2019-02-22T19:44:40.533Z,2.70
2019-02-22T19:47:11.320Z,2.00
2019-02-22T19:49:41.881Z,2.50
2019-02-22T19:52:14.333Z,1.73
2019-02-22T19:54:48.430Z,1.80
2019-02-22T19:57:18.966Z,2.10
2019-02-22T19:59:52.284Z,2.80
2019-02-22T20:02:22.835Z,2.93
2019-02-22T20:04:53.490Z,2.40
2019-02-22T20:07:24.080Z,1.90
2019-02-22T20:09:54.573Z,2.00
2019-02-22T20:12:29.103Z,1.70
2019-02-22T20:15:01.133Z,2.60
2019-02-22T20:17:34.345Z,2.40
2019-02-22T20:20:07.368Z,3.37
2019-02-22T20:22:37.938Z,2.97
2019-02-22T20:25:09.842Z,2.67
2019-02-22T20:27:40.595Z,3.10
2019-02-22T20:30:15.813Z,2.55
2019-02-22T20:32:48.161Z,2.80
2019-02-22T20:35:24.481Z,3.77
2019-02-22T20:37:59.420Z,3.07
2019-02-22T20:40:34.006Z,3.00
2019-02-22T20:43:22.357Z,2.90
2019-02-22T20:45:55.955Z,3.47
2019-02-22T20:48:26.975Z,3.95
2019-02-22T20:50:59.160Z,3.47
2019-02-22T20:53:29.951Z,3.98
2019-02-22T20:56:02.692Z,3.40
2019-02-22T20:58:35.257Z,1.75
2019-02-22T21:01:14.779Z,3.37
2019-02-22T21:03:44.816Z,2.40
2019-02-22T21:06:19.036Z,2.42
2019-02-22T21:08:54.555Z,2.20
2019-02-22T21:11:25.832Z,1.73
2019-02-22T21:13:58.799Z,3.40
2019-02-22T21:16:30.682Z,1.52
2019-02-22T21:19:01.695Z,3.47
2019-02-22T21:21:33.073Z,2.30
2019-02-22T21:24:09.879Z,2.77
2019-02-22T21:26:41.151Z,2.15
2019-02-22T21:29:17.929Z,2.77
2019-02-22T21:31:49.921Z,3.87
2019-02-22T21:34:24.849Z,3.60
2019-02-22T21:36:57.425Z,2.70
2019-02-22T21:39:30.826Z,3.20
2019-02-22T21:42:01.660Z,3.70
2019-02-22T21:44:32.559Z,3.50
2019-02-22T21:47:03.511Z,1.82
2019-02-22T21:49:35.885Z,3.20
2019-02-22T21:52:06.800Z,4.33
2019-02-22T21:54:37.582Z,5.03
2019-02-22T21:57:09.256Z,3.95
2019-02-22T21:59:40.061Z,3.70
2019-02-22T22:02:12.394Z,4.20
2019-02-22T22:04:46.060Z,4.90
2019-02-22T22:07:17.789Z,4.03
2019-02-22T22:09:49.574Z,3.92
2019-02-22T22:12:22.780Z,4.65
2019-02-22T22:14:53.632Z,3.58
2019-02-22T22:17:24.357Z,3.47
2019-02-22T22:19:55.087Z,3.70
2019-02-22T22:22:25.855Z,3.12
2019-02-22T22:24:56.584Z,3.27
2019-02-22T22:27:27.369Z,3.60
2019-02-22T22:29:58.149Z,3.85
2019-02-22T22:32:29.936Z,3.72
2019-02-22T22:35:00.667Z,3.40
2019-02-22T22:37:32.688Z,3.90
2019-02-22T22:40:03.444Z,3.80
2019-02-22T22:42:35.226Z,4.50
2019-02-22T22:45:09.105Z,3.83
2019-02-22T22:47:40.242Z,3.85
2019-02-22T22:50:14.710Z,3.65
2019-02-22T22:52:45.489Z,3.20
2019-02-22T22:55:16.184Z,3.27
2019-02-22T22:57:47.850Z,3.25
2019-02-22T23:00:53.094Z,4.05
2019-02-22T23:03:23.870Z,2.90
2019-02-22T23:05:54.609Z,3.52
2019-02-22T23:08:25.314Z,3.02
2019-02-22T23:10:56.038Z,3.15
2019-02-22T23:13:28.372Z,2.17
2019-02-22T23:15:59.128Z,3.80
2019-02-22T23:18:29.875Z,3.35
2019-02-22T23:21:02.133Z,3.67
2019-02-22T23:23:32.933Z,4.00
2019-02-22T23:26:05.529Z,3.77
2019-02-22T23:28:36.388Z,2.08
2019-02-22T23:31:07.162Z,3.40
2019-02-22T23:33:39.442Z,4.42
2019-02-22T23:36:10.289Z,3.50
2019-02-22T23:38:41.055Z,4.87
2019-02-22T23:41:11.951Z,4.97
2019-02-22T23:43:42.725Z,5.70
2019-02-22T23:46:13.891Z,5.53
2019-02-22T23:48:44.784Z,2.67
2019-02-22T23:51:15.743Z,3.62
2019-02-22T23:53:46.557Z,4.20
2019-02-22T23:56:20.261Z,5.17
2019-02-22T23:58:51.084Z,4.87
